sensor_id;sensor_type;location;lat;lon;timestamp;P1;durP1;ratioP1;P2;durP2;ratioP2
6823;SDS011;58633;49.470;11.004;2023-04-24T00:00:16;0.10;;;0.10;;
6823;SDS011;58633;49.470;11.004;2023-04-24T00:02:42;0.15;;;0.15;;
6823;SDS011;58633;49.470;11.004;2023-04-24T00:05:13;0.10;;;0.10;;
6823;SDS011;58633;49.470;11.004;2023-04-24T00:07:40;1.48;;;1.48;;
6823;SDS011;58633;49.470;11.004;2023-04-24T00:10:06;0.20;;;0.20;;
6823;SDS011;58633;49.470;11.004;2023-04-24T00:12:33;0.20;;;0.20;;
6823;SDS011;58633;49.470;11.004;2023-04-24T00:14:59;0.20;;;0.20;;
6823;SDS011;58633;49.470;11.004;2023-04-24T00:17:25;0.20;;;0.20;;
6823;SDS011;58633;49.470;11.004;2023-04-24T00:19:51;0.20;;;0.20;;
6823;SDS011;58633;49.470;11.004;2023-04-24T00:22:16;0.10;;;0.10;;
6823;SDS011;58633;49.470;11.004;2023-04-24T00:24:42;0.10;;;0.10;;
6823;SDS011;58633;49.470;11.004;2023-04-24T00:27:08;0.20;;;0.20;;
6823;SDS011;58633;49.470;11.004;2023-04-24T00:29:34;0.20;;;0.20;;
6823;SDS011;58633;49.470;11.004;2023-04-24T00:31:59;0.20;;;0.20;;
6823;SDS011;58633;49.470;11.004;2023-04-24T00:34:25;0.20;;;0.20;;
6823;SDS011;58633;49.470;11.004;2023-04-24T00:36:50;0.20;;;0.20;;
6823;SDS011;58633;49.470;11.004;2023-04-24T00:39:18;0.20;;;0.20;;
6823;SDS011;58633;49.470;11.004;2023-04-24T00:41:44;0.20;;;0.20;;
6823;SDS011;58633;49.470;11.004;2023-04-24T00:44:10;0.20;;;0.20;;
6823;SDS011;58633;49.470;11.004;2023-04-24T00:46:36;0.20;;;0.20;;
6823;SDS011;58633;49.470;11.004;2023-04-24T00:49:01;0.13;;;0.13;;
6823;SDS011;58633;49.470;11.004;2023-04-24T00:51:27;0.20;;;0.20;;
6823;SDS011;58633;49.470;11.004;2023-04-24T00:53:53;0.20;;;0.20;;
6823;SDS011;58633;49.470;11.004;2023-04-24T00:56:18;0.10;;;0.10;;
6823;SDS011;58633;49.470;11.004;2023-04-24T00:58:44;0.20;;;0.20;;
6823;SDS011;58633;49.470;11.004;2023-04-24T01:01:10;0.20;;;0.20;;
6823;SDS011;58633;49.470;11.004;2023-04-24T01:03:36;0.20;;;0.20;;
6823;SDS011;58633;49.470;11.004;2023-04-24T01:06:03;0.20;;;0.20;;
6823;SDS011;58633;49.470;11.004;2023-04-24T01:08:30;0.10;;;0.10;;
6823;SDS011;58633;49.470;11.004;2023-04-24T01:10:56;0.20;;;0.20;;
6823;SDS011;58633;49.470;11.004;2023-04-24T01:13:22;0.20;;;0.20;;
6823;SDS011;58633;49.470;11.004;2023-04-24T01:15:48;0.17;;;0.17;;
6823;SDS011;58633;49.470;11.004;2023-04-24T01:18:14;0.10;;;0.10;;
6823;SDS011;58633;49.470;11.004;2023-04-24T01:20:40;0.15;;;0.15;;
6823;SDS011;58633;49.470;11.004;2023-04-24T01:23:08;0.20;;;0.20;;
6823;SDS011;58633;49.470;11.004;2023-04-24T01:25:35;0.15;;;0.15;;
6823;SDS011;58633;49.470;11.004;2023-04-24T01:28:02;0.20;;;0.20;;
6823;SDS011;58633;49.470;11.004;2023-04-24T01:30:27;0.17;;;0.17;;
6823;SDS011;58633;49.470;11.004;2023-04-24T01:32:53;0.20;;;0.20;;
6823;SDS011;58633;49.470;11.004;2023-04-24T01:35:19;0.10;;;0.10;;
6823;SDS011;58633;49.470;11.004;2023-04-24T01:37:45;0.10;;;0.10;;
6823;SDS011;58633;49.470;11.004;2023-04-24T01:40:11;0.17;;;0.17;;
6823;SDS011;58633;49.470;11.004;2023-04-24T01:42:37;0.15;;;0.15;;
6823;SDS011;58633;49.470;11.004;2023-04-24T01:45:03;0.20;;;0.20;;
6823;SDS011;58633;49.470;11.004;2023-04-24T01:47:30;0.15;;;0.15;;
6823;SDS011;58633;49.470;11.004;2023-04-24T01:49:57;0.20;;;0.20;;
6823;SDS011;58633;49.470;11.004;2023-04-24T01:52:23;0.20;;;0.20;;
6823;SDS011;58633;49.470;11.004;2023-04-24T01:54:48;0.20;;;0.20;;
6823;SDS011;58633;49.470;11.004;2023-04-24T01:57:14;0.20;;;0.20;;
6823;SDS011;58633;49.470;11.004;2023-04-24T01:59:41;0.20;;;0.20;;
6823;SDS011;58633;49.470;11.004;2023-04-24T02:02:07;0.10;;;0.10;;
6823;SDS011;58633;49.470;11.004;2023-04-24T02:04:32;0.20;;;0.20;;
6823;SDS011;58633;49.470;11.004;2023-04-24T02:06:58;0.10;;;0.10;;
6823;SDS011;58633;49.470;11.004;2023-04-24T02:09:23;0.15;;;0.15;;
6823;SDS011;58633;49.470;11.004;2023-04-24T02:11:49;0.10;;;0.10;;
6823;SDS011;58633;49.470;11.004;2023-04-24T02:14:15;0.10;;;0.10;;
6823;SDS011;58633;49.470;11.004;2023-04-24T02:16:41;0.10;;;0.10;;
6823;SDS011;58633;49.470;11.004;2023-04-24T02:19:06;0.10;;;0.10;;
6823;SDS011;58633;49.470;11.004;2023-04-24T02:21:32;0.17;;;0.17;;
6823;SDS011;58633;49.470;11.004;2023-04-24T02:23:58;0.20;;;0.20;;
6823;SDS011;58633;49.470;11.004;2023-04-24T02:26:24;0.20;;;0.20;;
6823;SDS011;58633;49.470;11.004;2023-04-24T02:28:49;0.15;;;0.15;;
6823;SDS011;58633;49.470;11.004;2023-04-24T02:31:15;0.20;;;0.20;;
6823;SDS011;58633;49.470;11.004;2023-04-24T02:33:40;0.20;;;0.20;;
6823;SDS011;58633;49.470;11.004;2023-04-24T02:36:06;0.13;;;0.13;;
6823;SDS011;58633;49.470;11.004;2023-04-24T02:38:32;0.10;;;0.10;;
6823;SDS011;58633;49.470;11.004;2023-04-24T02:40:57;0.20;;;0.20;;
6823;SDS011;58633;49.470;11.004;2023-04-24T02:43:23;0.17;;;0.17;;
6823;SDS011;58633;49.470;11.004;2023-04-24T02:45:48;0.10;;;0.10;;
6823;SDS011;58633;49.470;11.004;2023-04-24T02:48:14;0.20;;;0.20;;
6823;SDS011;58633;49.470;11.004;2023-04-24T02:50:40;0.17;;;0.17;;
6823;SDS011;58633;49.470;11.004;2023-04-24T02:53:05;0.20;;;0.20;;
6823;SDS011;58633;49.470;11.004;2023-04-24T02:55:31;0.10;;;0.10;;
6823;SDS011;58633;49.470;11.004;2023-04-24T02:57:57;0.10;;;0.10;;
6823;SDS011;58633;49.470;11.004;2023-04-24T03:00:22;7.85;;;7.13;;
6823;SDS011;58633;49.470;11.004;2023-04-24T03:02:48;0.10;;;0.10;;
6823;SDS011;58633;49.470;11.004;2023-04-24T03:05:14;0.10;;;0.10;;
6823;SDS011;58633;49.470;11.004;2023-04-24T03:07:40;0.20;;;0.20;;
6823;SDS011;58633;49.470;11.004;2023-04-24T03:10:06;0.10;;;0.10;;
6823;SDS011;58633;49.470;11.004;2023-04-24T03:12:32;0.10;;;0.10;;
6823;SDS011;58633;49.470;11.004;2023-04-24T03:14:58;0.20;;;0.20;;
6823;SDS011;58633;49.470;11.004;2023-04-24T03:17:23;0.10;;;0.10;;
6823;SDS011;58633;49.470;11.004;2023-04-24T03:19:49;0.15;;;0.15;;
6823;SDS011;58633;49.470;11.004;2023-04-24T03:22:14;0.20;;;0.20;;
6823;SDS011;58633;49.470;11.004;2023-04-24T03:24:40;0.10;;;0.10;;
6823;SDS011;58633;49.470;11.004;2023-04-24T03:27:06;0.15;;;0.15;;
6823;SDS011;58633;49.470;11.004;2023-04-24T03:29:31;0.20;;;0.20;;
6823;SDS011;58633;49.470;11.004;2023-04-24T03:31:57;0.20;;;0.20;;
6823;SDS011;58633;49.470;11.004;2023-04-24T03:34:22;1.60;;;1.50;;
6823;SDS011;58633;49.470;11.004;2023-04-24T03:36:48;1.27;;;1.27;;
6823;SDS011;58633;49.470;11.004;2023-04-24T03:39:13;2.20;;;1.45;;
6823;SDS011;58633;49.470;11.004;2023-04-24T03:41:39;2.00;;;1.63;;
6823;SDS011;58633;49.470;11.004;2023-04-24T03:44:05;2.47;;;1.60;;
6823;SDS011;58633;49.470;11.004;2023-04-24T03:46:30;2.33;;;1.17;;
6823;SDS011;58633;49.470;11.004;2023-04-24T03:48:56;2.42;;;2.00;;
6823;SDS011;58633;49.470;11.004;2023-04-24T03:51:21;1.70;;;1.55;;
6823;SDS011;58633;49.470;11.004;2023-04-24T03:53:47;1.83;;;1.50;;
6823;SDS011;58633;49.470;11.004;2023-04-24T03:56:13;1.55;;;1.45;;
6823;SDS011;58633;49.470;11.004;2023-04-24T03:58:39;1.75;;;1.65;;
6823;SDS011;58633;49.470;11.004;2023-04-24T04:01:05;2.25;;;1.40;;
6823;SDS011;58633;49.470;11.004;2023-04-24T04:03:30;1.80;;;1.60;;
6823;SDS011;58633;49.470;11.004;2023-04-24T04:05:56;1.88;;;1.52;;
6823;SDS011;58633;49.470;11.004;2023-04-24T04:08:21;3.45;;;1.60;;
6823;SDS011;58633;49.470;11.004;2023-04-24T04:10:47;2.43;;;1.60;;
6823;SDS011;58633;49.470;11.004;2023-04-24T04:13:12;1.50;;;1.40;;
6823;SDS011;58633;49.470;11.004;2023-04-24T04:15:38;1.77;;;1.38;;
6823;SDS011;58633;49.470;11.004;2023-04-24T04:18:03;4.22;;;1.98;;
6823;SDS011;58633;49.470;11.004;2023-04-24T04:20:29;2.08;;;1.67;;
6823;SDS011;58633;49.470;11.004;2023-04-24T04:22:54;2.78;;;1.90;;
6823;SDS011;58633;49.470;11.004;2023-04-24T04:25:20;1.80;;;1.70;;
6823;SDS011;58633;49.470;11.004;2023-04-24T04:27:46;2.97;;;2.17;;
6823;SDS011;58633;49.470;11.004;2023-04-24T04:30:13;2.60;;;2.10;;
6823;SDS011;58633;49.470;11.004;2023-04-24T04:32:39;3.45;;;2.00;;
6823;SDS011;58633;49.470;11.004;2023-04-24T04:35:05;3.85;;;1.85;;
6823;SDS011;58633;49.470;11.004;2023-04-24T04:37:34;2.15;;;1.80;;
6823;SDS011;58633;49.470;11.004;2023-04-24T04:40:00;2.53;;;1.95;;
6823;SDS011;58633;49.470;11.004;2023-04-24T04:42:26;3.33;;;2.08;;
6823;SDS011;58633;49.470;11.004;2023-04-24T04:44:53;3.15;;;2.10;;
6823;SDS011;58633;49.470;11.004;2023-04-24T04:47:19;1.83;;;1.73;;
6823;SDS011;58633;49.470;11.004;2023-04-24T04:49:49;2.10;;;2.00;;
6823;SDS011;58633;49.470;11.004;2023-04-24T04:52:18;2.00;;;1.90;;
6823;SDS011;58633;49.470;11.004;2023-04-24T04:54:44;2.47;;;2.00;;
6823;SDS011;58633;49.470;11.004;2023-04-24T04:57:11;2.30;;;2.10;;
6823;SDS011;58633;49.470;11.004;2023-04-24T04:59:37;2.33;;;2.13;;
6823;SDS011;58633;49.470;11.004;2023-04-24T05:02:02;2.65;;;2.42;;
6823;SDS011;58633;49.470;11.004;2023-04-24T05:04:28;2.50;;;2.03;;
6823;SDS011;58633;49.470;11.004;2023-04-24T05:06:53;2.63;;;2.30;;
6823;SDS011;58633;49.470;11.004;2023-04-24T05:09:19;3.17;;;2.10;;
6823;SDS011;58633;49.470;11.004;2023-04-24T05:11:44;3.20;;;2.50;;
6823;SDS011;58633;49.470;11.004;2023-04-24T05:14:10;3.40;;;2.50;;
6823;SDS011;58633;49.470;11.004;2023-04-24T05:16:37;4.07;;;2.40;;
6823;SDS011;58633;49.470;11.004;2023-04-24T05:19:03;2.40;;;2.03;;
6823;SDS011;58633;49.470;11.004;2023-04-24T05:21:29;3.65;;;2.45;;
6823;SDS011;58633;49.470;11.004;2023-04-24T05:23:55;3.13;;;2.13;;
6823;SDS011;58633;49.470;11.004;2023-04-24T05:26:21;2.40;;;2.20;;
6823;SDS011;58633;49.470;11.004;2023-04-24T05:28:47;3.43;;;2.50;;
6823;SDS011;58633;49.470;11.004;2023-04-24T05:31:13;2.97;;;2.17;;
6823;SDS011;58633;49.470;11.004;2023-04-24T05:33:38;2.37;;;2.17;;
6823;SDS011;58633;49.470;11.004;2023-04-24T05:36:04;2.22;;;2.03;;
6823;SDS011;58633;49.470;11.004;2023-04-24T05:38:31;3.53;;;2.30;;
6823;SDS011;58633;49.470;11.004;2023-04-24T05:40:57;3.05;;;2.47;;
6823;SDS011;58633;49.470;11.004;2023-04-24T05:43:22;11.27;;;2.80;;
6823;SDS011;58633;49.470;11.004;2023-04-24T05:45:48;2.72;;;2.53;;
6823;SDS011;58633;49.470;11.004;2023-04-24T05:48:13;3.00;;;2.15;;
6823;SDS011;58633;49.470;11.004;2023-04-24T05:50:39;2.40;;;2.20;;
6823;SDS011;58633;49.470;11.004;2023-04-24T05:53:05;2.58;;;2.38;;
6823;SDS011;58633;49.470;11.004;2023-04-24T05:55:31;5.18;;;2.47;;
6823;SDS011;58633;49.470;11.004;2023-04-24T05:57:57;3.42;;;1.90;;
6823;SDS011;58633;49.470;11.004;2023-04-24T06:00:24;1.60;;;1.58;;
6823;SDS011;58633;49.470;11.004;2023-04-24T06:02:50;4.25;;;2.20;;
6823;SDS011;58633;49.470;11.004;2023-04-24T06:05:17;4.18;;;2.10;;
6823;SDS011;58633;49.470;11.004;2023-04-24T06:07:43;4.82;;;2.75;;
6823;SDS011;58633;49.470;11.004;2023-04-24T06:10:09;2.63;;;2.10;;
6823;SDS011;58633;49.470;11.004;2023-04-24T06:12:35;2.42;;;2.22;;
6823;SDS011;58633;49.470;11.004;2023-04-24T06:15:01;2.75;;;1.98;;
6823;SDS011;58633;49.470;11.004;2023-04-24T06:17:28;2.08;;;1.90;;
6823;SDS011;58633;49.470;11.004;2023-04-24T06:19:53;3.60;;;2.20;;
6823;SDS011;58633;49.470;11.004;2023-04-24T06:22:19;4.03;;;2.00;;
6823;SDS011;58633;49.470;11.004;2023-04-24T06:24:44;2.72;;;2.00;;
6823;SDS011;58633;49.470;11.004;2023-04-24T06:27:10;3.78;;;1.90;;
6823;SDS011;58633;49.470;11.004;2023-04-24T06:29:36;2.38;;;1.80;;
6823;SDS011;58633;49.470;11.004;2023-04-24T06:32:02;3.15;;;1.88;;
6823;SDS011;58633;49.470;11.004;2023-04-24T06:34:27;2.47;;;1.70;;
6823;SDS011;58633;49.470;11.004;2023-04-24T06:36:53;3.08;;;1.40;;
6823;SDS011;58633;49.470;11.004;2023-04-24T06:39:19;3.50;;;1.77;;
6823;SDS011;58633;49.470;11.004;2023-04-24T06:41:45;1.45;;;1.10;;
6823;SDS011;58633;49.470;11.004;2023-04-24T06:44:11;1.55;;;1.20;;
6823;SDS011;58633;49.470;11.004;2023-04-24T06:46:36;1.33;;;1.23;;
6823;SDS011;58633;49.470;11.004;2023-04-24T06:49:02;1.42;;;1.33;;
6823;SDS011;58633;49.470;11.004;2023-04-24T06:51:27;1.63;;;1.20;;
6823;SDS011;58633;49.470;11.004;2023-04-24T06:53:53;3.08;;;1.30;;
6823;SDS011;58633;49.470;11.004;2023-04-24T06:56:21;2.70;;;1.10;;
6823;SDS011;58633;49.470;11.004;2023-04-24T06:58:47;2.35;;;1.23;;
6823;SDS011;58633;49.470;11.004;2023-04-24T07:01:13;1.33;;;1.23;;
6823;SDS011;58633;49.470;11.004;2023-04-24T07:03:38;1.42;;;1.33;;
6823;SDS011;58633;49.470;11.004;2023-04-24T07:06:04;1.65;;;1.33;;
6823;SDS011;58633;49.470;11.004;2023-04-24T07:08:30;1.08;;;0.98;;
6823;SDS011;58633;49.470;11.004;2023-04-24T07:10:56;1.13;;;1.00;;
6823;SDS011;58633;49.470;11.004;2023-04-24T07:13:22;1.77;;;1.10;;
6823;SDS011;58633;49.470;11.004;2023-04-24T07:15:48;1.20;;;1.20;;
6823;SDS011;58633;49.470;11.004;2023-04-24T07:18:16;1.50;;;1.10;;
6823;SDS011;58633;49.470;11.004;2023-04-24T07:20:41;1.15;;;1.13;;
6823;SDS011;58633;49.470;11.004;2023-04-24T07:23:07;1.10;;;1.10;;
6823;SDS011;58633;49.470;11.004;2023-04-24T07:25:33;1.70;;;1.10;;
6823;SDS011;58633;49.470;11.004;2023-04-24T07:27:59;1.33;;;1.20;;
6823;SDS011;58633;49.470;11.004;2023-04-24T07:30:25;1.63;;;1.52;;
6823;SDS011;58633;49.470;11.004;2023-04-24T07:32:50;1.70;;;1.60;;
6823;SDS011;58633;49.470;11.004;2023-04-24T07:35:16;1.50;;;1.40;;
6823;SDS011;58633;49.470;11.004;2023-04-24T07:37:42;1.55;;;1.45;;
6823;SDS011;58633;49.470;11.004;2023-04-24T07:40:11;1.63;;;1.60;;
6823;SDS011;58633;49.470;11.004;2023-04-24T07:42:37;1.63;;;1.52;;
6823;SDS011;58633;49.470;11.004;2023-04-24T07:45:03;1.83;;;1.73;;
6823;SDS011;58633;49.470;11.004;2023-04-24T07:47:29;1.55;;;1.45;;
6823;SDS011;58633;49.470;11.004;2023-04-24T07:49:55;1.88;;;1.48;;
6823;SDS011;58633;49.470;11.004;2023-04-24T07:52:21;3.78;;;1.73;;
6823;SDS011;58633;49.470;11.004;2023-04-24T07:54:46;3.00;;;1.67;;
6823;SDS011;58633;49.470;11.004;2023-04-24T07:57:12;1.73;;;1.63;;
6823;SDS011;58633;49.470;11.004;2023-04-24T07:59:38;1.73;;;1.50;;
6823;SDS011;58633;49.470;11.004;2023-04-24T08:02:04;1.60;;;1.50;;
6823;SDS011;58633;49.470;11.004;2023-04-24T08:04:31;2.03;;;1.83;;
6823;SDS011;58633;49.470;11.004;2023-04-24T08:06:56;2.63;;;1.60;;
6823;SDS011;58633;49.470;11.004;2023-04-24T08:09:22;2.20;;;1.60;;
6823;SDS011;58633;49.470;11.004;2023-04-24T08:11:48;1.85;;;1.58;;
6823;SDS011;58633;49.470;11.004;2023-04-24T08:14:13;1.90;;;1.70;;
6823;SDS011;58633;49.470;11.004;2023-04-24T08:16:39;3.50;;;2.30;;
6823;SDS011;58633;49.470;11.004;2023-04-24T08:19:05;2.08;;;1.77;;
6823;SDS011;58633;49.470;11.004;2023-04-24T08:21:31;1.90;;;1.73;;
6823;SDS011;58633;49.470;11.004;2023-04-24T08:23:57;1.98;;;1.70;;
6823;SDS011;58633;49.470;11.004;2023-04-24T08:26:22;2.15;;;2.00;;
6823;SDS011;58633;49.470;11.004;2023-04-24T08:28:48;2.35;;;1.77;;
6823;SDS011;58633;49.470;11.004;2023-04-24T08:31:14;2.63;;;2.42;;
6823;SDS011;58633;49.470;11.004;2023-04-24T08:33:40;2.30;;;2.20;;
6823;SDS011;58633;49.470;11.004;2023-04-24T08:36:06;2.72;;;2.00;;
6823;SDS011;58633;49.470;11.004;2023-04-24T08:38:32;2.17;;;2.00;;
6823;SDS011;58633;49.470;11.004;2023-04-24T08:40:59;2.53;;;2.20;;
6823;SDS011;58633;49.470;11.004;2023-04-24T08:43:25;3.03;;;2.15;;
6823;SDS011;58633;49.470;11.004;2023-04-24T08:45:52;3.58;;;2.00;;
6823;SDS011;58633;49.470;11.004;2023-04-24T08:48:20;5.07;;;2.38;;
6823;SDS011;58633;49.470;11.004;2023-04-24T08:50:47;3.72;;;2.28;;
6823;SDS011;58633;49.470;11.004;2023-04-24T08:53:15;2.90;;;2.10;;
6823;SDS011;58633;49.470;11.004;2023-04-24T08:55:40;3.55;;;2.40;;
6823;SDS011;58633;49.470;11.004;2023-04-24T08:58:08;4.15;;;2.40;;
6823;SDS011;58633;49.470;11.004;2023-04-24T09:00:34;2.95;;;2.22;;
6823;SDS011;58633;49.470;11.004;2023-04-24T09:03:00;2.20;;;1.92;;
6823;SDS011;58633;49.470;11.004;2023-04-24T09:05:26;2.42;;;2.30;;
6823;SDS011;58633;49.470;11.004;2023-04-24T09:07:53;5.13;;;2.30;;
6823;SDS011;58633;49.470;11.004;2023-04-24T09:10:21;2.70;;;2.50;;
6823;SDS011;58633;49.470;11.004;2023-04-24T09:12:48;2.80;;;2.25;;
6823;SDS011;58633;49.470;11.004;2023-04-24T09:15:15;3.33;;;2.30;;
6823;SDS011;58633;49.470;11.004;2023-04-24T09:17:41;2.65;;;2.13;;
6823;SDS011;58633;49.470;11.004;2023-04-24T09:20:08;2.60;;;2.38;;
6823;SDS011;58633;49.470;11.004;2023-04-24T09:22:34;2.50;;;2.30;;
6823;SDS011;58633;49.470;11.004;2023-04-24T09:25:03;2.42;;;2.28;;
6823;SDS011;58633;49.470;11.004;2023-04-24T09:27:31;2.65;;;2.45;;
6823;SDS011;58633;49.470;11.004;2023-04-24T09:29:58;2.92;;;2.10;;
6823;SDS011;58633;49.470;11.004;2023-04-24T09:32:24;2.47;;;1.85;;
6823;SDS011;58633;49.470;11.004;2023-04-24T09:35:04;2.10;;;1.90;;
6823;SDS011;58633;49.470;11.004;2023-04-24T09:37:38;2.20;;;2.10;;
6823;SDS011;58633;49.470;11.004;2023-04-24T09:42:46;3.20;;;2.67;;
6823;SDS011;58633;49.470;11.004;2023-04-24T09:45:16;2.40;;;2.00;;
6823;SDS011;58633;49.470;11.004;2023-04-24T09:47:42;2.33;;;2.13;;
6823;SDS011;58633;49.470;11.004;2023-04-24T09:50:11;3.30;;;1.63;;
6823;SDS011;58633;49.470;11.004;2023-04-24T09:52:46;2.42;;;2.08;;
6823;SDS011;58633;49.470;11.004;2023-04-24T09:55:20;1.77;;;1.60;;
6823;SDS011;58633;49.470;11.004;2023-04-24T09:57:49;1.38;;;1.30;;
6823;SDS011;58633;49.470;11.004;2023-04-24T10:00:27;1.77;;;1.55;;
6823;SDS011;58633;49.470;11.004;2023-04-24T10:02:55;1.60;;;1.50;;
6823;SDS011;58633;49.470;11.004;2023-04-24T10:05:34;1.10;;;1.10;;
6823;SDS011;58633;49.470;11.004;2023-04-24T10:08:04;4.55;;;1.40;;
6823;SDS011;58633;49.470;11.004;2023-04-24T10:10:32;1.65;;;1.20;;
6823;SDS011;58633;49.470;11.004;2023-04-24T10:13:00;1.40;;;1.30;;
6823;SDS011;58633;49.470;11.004;2023-04-24T10:15:26;1.48;;;1.10;;
6823;SDS011;58633;49.470;11.004;2023-04-24T10:17:52;1.05;;;1.05;;
6823;SDS011;58633;49.470;11.004;2023-04-24T10:20:22;1.35;;;1.25;;
6823;SDS011;58633;49.470;11.004;2023-04-24T10:22:50;1.00;;;1.00;;
6823;SDS011;58633;49.470;11.004;2023-04-24T10:25:23;1.33;;;1.23;;
6823;SDS011;58633;49.470;11.004;2023-04-24T10:27:50;1.05;;;1.05;;
6823;SDS011;58633;49.470;11.004;2023-04-24T10:30:17;2.38;;;1.50;;
6823;SDS011;58633;49.470;11.004;2023-04-24T10:32:43;5.07;;;3.53;;
6823;SDS011;58633;49.470;11.004;2023-04-24T10:35:10;10.70;;;5.80;;
6823;SDS011;58633;49.470;11.004;2023-04-24T10:37:38;4.20;;;2.38;;
6823;SDS011;58633;49.470;11.004;2023-04-24T10:40:07;1.63;;;1.60;;
6823;SDS011;58633;49.470;11.004;2023-04-24T10:42:34;1.02;;;1.02;;
6823;SDS011;58633;49.470;11.004;2023-04-24T10:45:04;1.70;;;1.42;;
6823;SDS011;58633;49.470;11.004;2023-04-24T10:47:39;1.55;;;1.30;;
6823;SDS011;58633;49.470;11.004;2023-04-24T10:50:12;2.10;;;1.30;;
6823;SDS011;58633;49.470;11.004;2023-04-24T10:52:44;2.15;;;1.10;;
6823;SDS011;58633;49.470;11.004;2023-04-24T10:55:15;2.25;;;1.13;;
6823;SDS011;58633;49.470;11.004;2023-04-24T10:58:00;1.20;;;1.20;;
6823;SDS011;58633;49.470;11.004;2023-04-24T11:00:29;2.38;;;1.02;;
6823;SDS011;58633;49.470;11.004;2023-04-24T11:02:55;1.50;;;0.90;;
6823;SDS011;58633;49.470;11.004;2023-04-24T11:05:22;1.52;;;1.10;;
6823;SDS011;58633;49.470;11.004;2023-04-24T11:08:14;1.23;;;1.00;;
6823;SDS011;58633;49.470;11.004;2023-04-24T11:10:46;3.60;;;1.98;;
6823;SDS011;58633;49.470;11.004;2023-04-24T11:13:20;1.20;;;1.20;;
6823;SDS011;58633;49.470;11.004;2023-04-24T11:16:11;2.92;;;1.20;;
6823;SDS011;58633;49.470;11.004;2023-04-24T11:18:39;1.20;;;1.10;;
6823;SDS011;58633;49.470;11.004;2023-04-24T11:21:10;1.38;;;1.27;;
6823;SDS011;58633;49.470;11.004;2023-04-24T11:23:37;1.40;;;1.30;;
6823;SDS011;58633;49.470;11.004;2023-04-24T11:26:10;1.50;;;1.40;;
6823;SDS011;58633;49.470;11.004;2023-04-24T11:29:06;1.65;;;1.50;;
6823;SDS011;58633;49.470;11.004;2023-04-24T11:31:36;1.90;;;1.80;;
6823;SDS011;58633;49.470;11.004;2023-04-24T11:34:09;1.75;;;1.65;;
6823;SDS011;58633;49.470;11.004;2023-04-24T11:36:37;2.00;;;1.90;;
6823;SDS011;58633;49.470;11.004;2023-04-24T11:39:03;2.75;;;1.95;;
6823;SDS011;58633;49.470;11.004;2023-04-24T11:41:28;1.65;;;1.33;;
6823;SDS011;58633;49.470;11.004;2023-04-24T11:43:55;1.63;;;1.30;;
6823;SDS011;58633;49.470;11.004;2023-04-24T11:46:21;1.98;;;1.70;;
6823;SDS011;58633;49.470;11.004;2023-04-24T11:48:47;2.88;;;1.83;;
6823;SDS011;58633;49.470;11.004;2023-04-24T11:51:13;1.77;;;1.67;;
6823;SDS011;58633;49.470;11.004;2023-04-24T11:53:39;1.65;;;1.55;;
6823;SDS011;58633;49.470;11.004;2023-04-24T11:56:05;1.60;;;1.50;;
6823;SDS011;58633;49.470;11.004;2023-04-24T11:58:40;2.00;;;1.88;;
6823;SDS011;58633;49.470;11.004;2023-04-24T12:01:05;1.70;;;1.60;;
6823;SDS011;58633;49.470;11.004;2023-04-24T12:03:31;1.48;;;1.38;;
6823;SDS011;58633;49.470;11.004;2023-04-24T12:06:06;1.45;;;1.20;;
6823;SDS011;58633;49.470;11.004;2023-04-24T12:08:33;1.52;;;1.40;;
6823;SDS011;58633;49.470;11.004;2023-04-24T12:11:02;3.90;;;1.60;;
6823;SDS011;58633;49.470;11.004;2023-04-24T12:13:29;1.65;;;1.55;;
6823;SDS011;58633;49.470;11.004;2023-04-24T12:15:56;1.80;;;1.70;;
6823;SDS011;58633;49.470;11.004;2023-04-24T12:18:23;2.13;;;1.58;;
6823;SDS011;58633;49.470;11.004;2023-04-24T12:20:48;3.53;;;1.70;;
6823;SDS011;58633;49.470;11.004;2023-04-24T12:23:14;1.75;;;1.65;;
6823;SDS011;58633;49.470;11.004;2023-04-24T12:25:40;2.83;;;1.83;;
6823;SDS011;58633;49.470;11.004;2023-04-24T12:30:38;1.92;;;1.38;;
6823;SDS011;58633;49.470;11.004;2023-04-24T12:33:06;1.40;;;1.30;;
6823;SDS011;58633;49.470;11.004;2023-04-24T12:35:32;3.03;;;1.65;;
6823;SDS011;58633;49.470;11.004;2023-04-24T12:38:08;5.20;;;1.65;;
6823;SDS011;58633;49.470;11.004;2023-04-24T12:40:34;1.70;;;1.60;;
6823;SDS011;58633;49.470;11.004;2023-04-24T12:43:00;2.70;;;1.60;;
6823;SDS011;58633;49.470;11.004;2023-04-24T12:45:26;1.48;;;1.35;;
6823;SDS011;58633;49.470;11.004;2023-04-24T12:47:52;1.60;;;1.50;;
6823;SDS011;58633;49.470;11.004;2023-04-24T12:50:18;1.60;;;1.50;;
6823;SDS011;58633;49.470;11.004;2023-04-24T12:52:44;1.42;;;1.30;;
6823;SDS011;58633;49.470;11.004;2023-04-24T12:55:10;2.40;;;2.20;;
6823;SDS011;58633;49.470;11.004;2023-04-24T12:57:37;1.50;;;1.40;;
6823;SDS011;58633;49.470;11.004;2023-04-24T13:00:05;1.40;;;1.30;;
6823;SDS011;58633;49.470;11.004;2023-04-24T13:02:32;2.83;;;1.23;;
6823;SDS011;58633;49.470;11.004;2023-04-24T13:04:58;1.80;;;1.20;;
6823;SDS011;58633;49.470;11.004;2023-04-24T13:07:25;1.70;;;1.20;;
6823;SDS011;58633;49.470;11.004;2023-04-24T13:09:51;1.58;;;1.48;;
6823;SDS011;58633;49.470;11.004;2023-04-24T13:12:17;2.10;;;1.33;;
6823;SDS011;58633;49.470;11.004;2023-04-24T13:14:44;1.98;;;1.40;;
6823;SDS011;58633;49.470;11.004;2023-04-24T13:17:10;1.40;;;1.40;;
6823;SDS011;58633;49.470;11.004;2023-04-24T13:19:37;1.60;;;1.55;;
6823;SDS011;58633;49.470;11.004;2023-04-24T13:22:06;1.80;;;1.58;;
6823;SDS011;58633;49.470;11.004;2023-04-24T13:24:34;2.72;;;1.73;;
6823;SDS011;58633;49.470;11.004;2023-04-24T13:27:00;1.50;;;1.40;;
6823;SDS011;58633;49.470;11.004;2023-04-24T13:29:26;1.73;;;1.63;;
6823;SDS011;58633;49.470;11.004;2023-04-24T13:31:52;2.38;;;1.60;;
6823;SDS011;58633;49.470;11.004;2023-04-24T13:34:22;1.70;;;1.60;;
6823;SDS011;58633;49.470;11.004;2023-04-24T13:36:49;1.70;;;1.60;;
6823;SDS011;58633;49.470;11.004;2023-04-24T13:39:18;1.85;;;1.75;;
6823;SDS011;58633;49.470;11.004;2023-04-24T13:41:44;1.80;;;1.70;;
6823;SDS011;58633;49.470;11.004;2023-04-24T13:44:12;1.10;;;1.10;;
6823;SDS011;58633;49.470;11.004;2023-04-24T13:46:37;1.40;;;1.30;;
6823;SDS011;58633;49.470;11.004;2023-04-24T13:49:03;1.85;;;1.70;;
6823;SDS011;58633;49.470;11.004;2023-04-24T13:51:28;1.77;;;1.67;;
6823;SDS011;58633;49.470;11.004;2023-04-24T13:53:54;2.03;;;1.92;;
6823;SDS011;58633;49.470;11.004;2023-04-24T13:56:20;2.00;;;1.80;;
6823;SDS011;58633;49.470;11.004;2023-04-24T13:58:47;2.20;;;2.00;;
6823;SDS011;58633;49.470;11.004;2023-04-24T14:01:13;2.00;;;1.90;;
6823;SDS011;58633;49.470;11.004;2023-04-24T14:03:40;2.38;;;2.20;;
6823;SDS011;58633;49.470;11.004;2023-04-24T14:06:06;2.72;;;2.53;;
6823;SDS011;58633;49.470;11.004;2023-04-24T14:08:32;2.67;;;2.47;;
6823;SDS011;58633;49.470;11.004;2023-04-24T14:10:57;2.58;;;2.38;;
6823;SDS011;58633;49.470;11.004;2023-04-24T14:13:23;2.75;;;2.10;;
6823;SDS011;58633;49.470;11.004;2023-04-24T14:15:49;2.38;;;2.28;;
6823;SDS011;58633;49.470;11.004;2023-04-24T14:18:15;2.55;;;2.35;;
6823;SDS011;58633;49.470;11.004;2023-04-24T14:20:41;2.50;;;2.30;;
6823;SDS011;58633;49.470;11.004;2023-04-24T14:23:06;3.10;;;2.58;;
6823;SDS011;58633;49.470;11.004;2023-04-24T14:25:32;4.13;;;2.80;;
6823;SDS011;58633;49.470;11.004;2023-04-24T14:27:57;3.00;;;2.80;;
6823;SDS011;58633;49.470;11.004;2023-04-24T14:30:23;2.65;;;2.20;;
6823;SDS011;58633;49.470;11.004;2023-04-24T14:32:48;2.30;;;2.10;;
6823;SDS011;58633;49.470;11.004;2023-04-24T14:35:14;2.35;;;2.15;;
6823;SDS011;58633;49.470;11.004;2023-04-24T14:37:40;2.33;;;2.13;;
6823;SDS011;58633;49.470;11.004;2023-04-24T14:40:06;2.08;;;1.58;;
6823;SDS011;58633;49.470;11.004;2023-04-24T14:42:33;1.45;;;1.38;;
6823;SDS011;58633;49.470;11.004;2023-04-24T14:44:59;1.52;;;1.42;;
6823;SDS011;58633;49.470;11.004;2023-04-24T14:47:24;1.60;;;1.50;;
6823;SDS011;58633;49.470;11.004;2023-04-24T14:49:50;1.98;;;1.80;;